createdAt,value
2023-01-26T00:01:18.631Z,96.31
2023-01-26T00:03:46.008Z,96.47
2023-01-26T00:06:15.902Z,97.97
2023-01-26T00:08:44.977Z,96.65
2023-01-26T00:11:13.973Z,96.34
2023-01-26T00:13:41.630Z,96.44
2023-01-26T00:16:11.407Z,96.26
2023-01-26T00:18:39.419Z,96.05
2023-01-26T00:21:08.450Z,96.00
2023-01-26T00:23:35.898Z,95.82
2023-01-26T00:26:05.719Z,95.85
2023-01-26T00:28:33.047Z,95.84
2023-01-26T00:31:06.124Z,95.64
2023-01-26T00:33:32.981Z,95.94
2023-01-26T00:36:00.203Z,95.76
2023-01-26T00:38:27.047Z,95.81
2023-01-26T00:40:53.960Z,96.25
2023-01-26T00:43:20.883Z,96.24
2023-01-26T00:45:47.866Z,95.34
2023-01-26T00:48:14.914Z,95.74
2023-01-26T00:50:41.768Z,95.84
2023-01-26T00:53:10.015Z,95.43
2023-01-26T00:55:37.240Z,95.11
2023-01-26T00:58:07.327Z,95.36
2023-01-26T01:00:36.027Z,95.15
2023-01-26T01:03:07.668Z,95.62
2023-01-26T01:05:35.322Z,94.89
2023-01-26T01:08:02.803Z,94.33
2023-01-26T01:10:29.731Z,94.66
2023-01-26T01:12:56.979Z,95.04
2023-01-26T01:15:24.842Z,95.62
2023-01-26T01:17:51.820Z,95.05
2023-01-26T01:20:18.791Z,95.07
2023-01-26T01:22:46.814Z,94.89
2023-01-26T01:25:13.810Z,94.68
2023-01-26T01:27:40.691Z,95.04
2023-01-26T01:30:08.674Z,94.75
2023-01-26T01:32:36.871Z,94.33
2023-01-26T01:35:04.024Z,94.38
2023-01-26T01:37:30.913Z,94.33
2023-01-26T01:39:57.909Z,94.54
2023-01-26T01:42:25.709Z,94.17
2023-01-26T01:45:23.938Z,94.33
2023-01-26T01:47:50.863Z,94.69
2023-01-26T01:50:19.458Z,96.06
2023-01-26T01:52:46.936Z,97.39
2023-01-26T01:55:16.771Z,98.24
2023-01-26T01:57:53.686Z,98.87
2023-01-26T02:00:23.761Z,99.41
2023-01-26T02:03:12.787Z,100.00
2023-01-26T02:05:55.980Z,100.00
2023-01-26T02:08:28.192Z,100.00
2023-01-26T02:10:59.559Z,98.47
2023-01-26T02:13:28.472Z,98.30
2023-01-26T02:15:55.487Z,99.45
2023-01-26T02:18:22.443Z,100.00
2023-01-26T02:21:07.108Z,99.30
2023-01-26T02:23:43.045Z,97.55
2023-01-26T02:26:14.624Z,97.81
2023-01-26T02:28:44.055Z,98.86
2023-01-26T02:31:12.039Z,98.43
2023-01-26T02:33:39.808Z,99.18
2023-01-26T02:36:08.206Z,100.00
2023-01-26T02:38:41.523Z,100.00
2023-01-26T02:41:12.734Z,100.00
2023-01-26T02:43:40.333Z,100.00
2023-01-26T02:46:07.298Z,100.00
2023-01-26T02:49:16.165Z,100.00
2023-01-26T02:51:43.102Z,100.00
2023-01-26T02:54:30.065Z,100.00
2023-01-26T02:56:58.320Z,100.00
2023-01-26T02:59:25.167Z,100.00
2023-01-26T03:01:53.230Z,100.00
2023-01-26T03:04:20.214Z,100.00
2023-01-26T03:06:47.122Z,100.00
2023-01-26T03:09:14.212Z,100.00
2023-01-26T03:11:44.234Z,100.00
2023-01-26T03:27:56.769Z,100.00
2023-01-26T03:30:23.884Z,100.00
2023-01-26T03:32:50.936Z,100.00
2023-01-26T03:35:22.836Z,100.00
2023-01-26T03:37:55.196Z,100.00
2023-01-26T03:41:03.531Z,100.00
2023-01-26T03:43:48.938Z,100.00
2023-01-26T03:46:35.029Z,100.00
2023-01-26T03:49:21.283Z,100.00
2023-01-26T03:52:10.995Z,100.00
2023-01-26T03:54:56.603Z,100.00
2023-01-26T03:57:23.501Z,99.97
2023-01-26T03:59:50.388Z,100.00
2023-01-26T04:02:39.579Z,100.00
2023-01-26T04:05:28.779Z,100.00
2023-01-26T04:08:24.702Z,100.00
2023-01-26T04:10:57.515Z,100.00
2023-01-26T04:13:43.896Z,100.00
2023-01-26T04:16:39.757Z,100.00
2023-01-26T04:19:25.260Z,100.00
2023-01-26T04:21:52.279Z,100.00
2023-01-26T04:24:22.635Z,100.00
2023-01-26T04:26:54.114Z,100.00
2023-01-26T04:29:28.257Z,100.00
2023-01-26T04:31:55.441Z,100.00
2023-01-26T04:34:23.268Z,100.00
2023-01-26T04:36:50.770Z,100.00
2023-01-26T04:39:19.427Z,100.00
2023-01-26T04:41:50.629Z,100.00
2023-01-26T04:44:19.555Z,100.00
2023-01-26T04:46:48.949Z,100.00
2023-01-26T04:49:17.169Z,100.00
2023-01-26T04:51:44.179Z,100.00
2023-01-26T04:54:11.511Z,100.00
2023-01-26T04:56:41.883Z,99.88
2023-01-26T04:59:09.966Z,99.70
2023-01-26T05:01:39.945Z,99.87
2023-01-26T05:04:08.431Z,100.00
2023-01-26T05:06:39.048Z,100.00
2023-01-26T05:09:06.738Z,100.00
2023-01-26T05:11:35.631Z,100.00
2023-01-26T05:14:22.687Z,100.00
2023-01-26T05:16:55.244Z,100.00
2023-01-26T05:19:27.549Z,100.00
2023-01-26T05:22:13.115Z,100.00
2023-01-26T05:24:47.702Z,100.00
2023-01-26T05:27:25.975Z,100.00
2023-01-26T05:30:00.778Z,100.00
2023-01-26T05:32:30.957Z,100.00
2023-01-26T05:34:57.862Z,100.00
2023-01-26T05:37:26.602Z,100.00
2023-01-26T05:39:53.513Z,100.00
2023-01-26T05:42:21.322Z,100.00
2023-01-26T05:44:51.201Z,100.00
2023-01-26T05:47:18.904Z,100.00
2023-01-26T05:49:48.556Z,100.00
2023-01-26T05:52:23.692Z,100.00
2023-01-26T05:54:51.250Z,100.00
2023-01-26T05:57:18.876Z,100.00
2023-01-26T05:59:56.715Z,100.00
2023-01-26T06:02:23.773Z,100.00
2023-01-26T06:04:50.664Z,100.00
2023-01-26T06:07:17.973Z,100.00
2023-01-26T06:09:49.890Z,100.00
2023-01-26T06:12:38.703Z,100.00
2023-01-26T06:15:28.879Z,100.00
2023-01-26T06:17:55.823Z,100.00
2023-01-26T06:20:22.845Z,98.71
2023-01-26T06:23:00.058Z,90.02
2023-01-26T06:25:27.457Z,88.94
2023-01-26T06:27:57.742Z,90.35
2023-01-26T06:30:27.409Z,88.97
2023-01-26T06:33:00.114Z,90.59
2023-01-26T06:35:28.309Z,91.99
2023-01-26T06:37:57.906Z,92.37
2023-01-26T06:40:24.762Z,92.29
2023-01-26T06:42:51.781Z,91.94
2023-01-26T06:45:20.788Z,92.15
2023-01-26T06:47:51.279Z,91.50
2023-01-26T06:50:23.234Z,91.91
2023-01-26T06:52:59.231Z,90.96
2023-01-26T06:55:52.880Z,90.51
2023-01-26T06:58:34.284Z,90.74
2023-01-26T07:01:07.118Z,90.13
2023-01-26T07:03:34.144Z,91.07
2023-01-26T07:06:01.157Z,87.23
2023-01-26T07:08:28.067Z,79.24
2023-01-26T07:10:54.977Z,71.40
2023-01-26T07:13:21.932Z,65.75
2023-01-26T07:15:48.777Z,61.41
2023-01-26T07:18:15.680Z,61.24
2023-01-26T07:20:42.601Z,59.12
2023-01-26T07:23:09.375Z,56.50
2023-01-26T07:25:36.362Z,60.50
2023-01-26T07:28:03.726Z,63.05
2023-01-26T07:30:30.780Z,59.30
2023-01-26T07:33:00.585Z,56.41
2023-01-26T07:35:27.569Z,59.12
2023-01-26T07:37:58.696Z,59.38
2023-01-26T07:40:25.912Z,61.62
2023-01-26T07:42:55.318Z,64.41
2023-01-26T07:45:57.388Z,63.87
2023-01-26T07:48:24.811Z,65.93
2023-01-26T07:50:51.989Z,66.79
2023-01-26T07:53:19.600Z,67.54
2023-01-26T07:55:47.179Z,68.94
2023-01-26T07:58:15.744Z,69.04
2023-01-26T08:00:42.607Z,68.66
2023-01-26T08:03:09.548Z,63.92
2023-01-26T08:05:38.601Z,58.46
2023-01-26T08:08:06.106Z,58.40
2023-01-26T08:10:35.519Z,57.58
2023-01-26T08:13:02.495Z,56.54
2023-01-26T08:15:29.563Z,61.12
2023-01-26T08:17:56.669Z,67.38
2023-01-26T08:20:24.038Z,69.43
2023-01-26T08:22:53.840Z,72.28
2023-01-26T08:25:20.689Z,73.76
2023-01-26T08:27:55.392Z,76.04
2023-01-26T08:30:22.269Z,78.38
2023-01-26T08:32:49.068Z,79.58
2023-01-26T08:35:16.391Z,80.11
2023-01-26T08:37:48.139Z,82.08
2023-01-26T08:40:16.505Z,83.01
2023-01-26T08:42:43.413Z,83.97
2023-01-26T08:45:13.239Z,85.43
2023-01-26T08:47:40.171Z,86.19
2023-01-26T08:50:07.478Z,87.31
2023-01-26T08:52:34.394Z,89.43
2023-01-26T08:55:02.642Z,91.07
2023-01-26T08:57:29.798Z,91.76
2023-01-26T08:59:56.650Z,91.71
2023-01-26T09:02:23.660Z,92.36
2023-01-26T09:04:50.629Z,91.38
2023-01-26T09:07:17.565Z,88.72
2023-01-26T09:09:45.083Z,89.45
2023-01-26T09:12:11.921Z,90.87
2023-01-26T09:14:38.769Z,89.22
2023-01-26T09:17:05.559Z,89.98
2023-01-26T09:19:35.008Z,91.53
2023-01-26T09:22:01.830Z,93.49
2023-01-26T09:24:28.683Z,94.61
2023-01-26T09:27:02.963Z,95.12
2023-01-26T09:29:32.269Z,98.03
2023-01-26T09:31:59.258Z,97.71
2023-01-26T09:34:28.761Z,96.59
2023-01-26T09:36:55.704Z,97.26
2023-01-26T09:39:22.775Z,96.33
2023-01-26T09:42:01.279Z,97.46
2023-01-26T09:44:33.985Z,97.91
2023-01-26T09:47:14.202Z,97.45
2023-01-26T09:49:55.610Z,97.58
2023-01-26T09:52:34.748Z,97.93
2023-01-26T09:55:05.181Z,97.88
2023-01-26T09:57:48.606Z,98.75
2023-01-26T10:00:46.941Z,100.00
2023-01-26T10:03:23.069Z,100.00
2023-01-26T10:06:05.231Z,100.00
2023-01-26T10:08:50.889Z,100.00
2023-01-26T10:11:28.345Z,100.00
2023-01-26T10:14:10.870Z,100.00
2023-01-26T10:16:38.304Z,100.00
2023-01-26T10:19:14.365Z,100.00
2023-01-26T10:21:45.754Z,100.00
2023-01-26T10:24:20.438Z,100.00
2023-01-26T10:26:53.005Z,99.68
2023-01-26T10:29:22.619Z,98.02
2023-01-26T10:31:55.276Z,96.26
2023-01-26T10:34:27.846Z,96.25
2023-01-26T10:37:14.669Z,95.29
2023-01-26T10:40:17.592Z,92.96
2023-01-26T10:42:57.711Z,92.34
2023-01-26T10:45:27.759Z,91.85
2023-01-26T10:48:12.945Z,90.78
2023-01-26T10:50:39.892Z,91.13
2023-01-26T10:53:06.851Z,90.51
2023-01-26T10:55:36.488Z,89.60
2023-01-26T10:58:04.547Z,89.58
2023-01-26T11:00:34.245Z,88.53
2023-01-26T11:03:17.699Z,89.15
2023-01-26T11:05:48.120Z,89.22
2023-01-26T11:08:50.675Z,88.34
2023-01-26T11:11:30.119Z,88.30
2023-01-26T11:14:17.009Z,88.39
2023-01-26T11:16:59.113Z,88.25
2023-01-26T11:19:56.957Z,87.12
2023-01-26T11:22:41.677Z,86.36
2023-01-26T11:25:17.516Z,86.93
2023-01-26T11:28:05.390Z,87.21
2023-01-26T11:30:46.548Z,86.43
2023-01-26T11:33:26.832Z,86.01
2023-01-26T11:35:59.398Z,86.28
2023-01-26T11:38:43.094Z,86.33
2023-01-26T11:41:45.942Z,85.70
2023-01-26T11:44:32.171Z,84.33
2023-01-26T11:46:59.599Z,83.68
2023-01-26T11:49:33.437Z,82.96
2023-01-26T11:52:24.593Z,80.57
2023-01-26T11:55:21.699Z,80.33
2023-01-26T11:58:25.554Z,79.84
2023-01-26T12:00:56.597Z,79.83
2023-01-26T12:03:35.593Z,79.91
2023-01-26T12:06:16.768Z,77.89
2023-01-26T12:08:50.435Z,77.09
2023-01-26T12:11:28.253Z,76.96
2023-01-26T12:13:55.036Z,78.49
2023-01-26T12:16:36.614Z,77.80
2023-01-26T12:19:11.182Z,78.40
2023-01-26T12:21:43.740Z,77.32
2023-01-26T12:24:48.309Z,76.53
2023-01-26T12:27:22.697Z,76.29
2023-01-26T12:29:56.994Z,76.53
2023-01-26T12:32:24.900Z,77.42
2023-01-26T12:34:51.749Z,77.95
2023-01-26T12:37:32.093Z,77.61
2023-01-26T12:40:38.113Z,77.24
2023-01-26T12:43:43.807Z,77.74
2023-01-26T12:46:12.579Z,78.08
2023-01-26T12:48:52.396Z,78.98
2023-01-26T12:51:32.387Z,80.16
2023-01-26T12:54:05.104Z,81.07
2023-01-26T12:56:40.577Z,81.45
2023-01-26T12:59:46.561Z,81.93
2023-01-26T13:02:16.051Z,80.91
2023-01-26T13:04:46.600Z,81.37
2023-01-26T13:07:29.665Z,84.73
2023-01-26T13:10:22.185Z,85.61
2023-01-26T13:12:52.452Z,86.79
2023-01-26T13:15:22.073Z,87.54
2023-01-26T13:17:49.852Z,88.19
2023-01-26T13:20:27.677Z,89.15
2023-01-26T13:22:56.008Z,89.08
2023-01-26T13:25:31.497Z,89.15
2023-01-26T13:28:04.160Z,88.46
2023-01-26T13:30:31.007Z,88.08
2023-01-26T13:33:21.282Z,88.13
2023-01-26T13:35:50.299Z,88.25
2023-01-26T13:38:29.361Z,88.25
2023-01-26T13:40:56.663Z,88.11
2023-01-26T13:43:28.316Z,88.39
2023-01-26T13:46:02.372Z,88.93
2023-01-26T13:48:50.430Z,89.97
2023-01-26T13:51:23.985Z,90.32
2023-01-26T13:54:06.519Z,90.69
2023-01-26T13:56:36.406Z,90.19
2023-01-26T13:59:16.845Z,90.97
2023-01-26T14:01:46.132Z,90.82
2023-01-26T14:04:34.026Z,91.01
2023-01-26T14:07:17.902Z,90.92
2023-01-26T14:09:51.316Z,90.67
2023-01-26T14:12:28.316Z,90.26
2023-01-26T14:15:00.351Z,89.86
2023-01-26T14:17:36.909Z,90.26
2023-01-26T14:20:21.031Z,90.64
2023-01-26T14:23:03.545Z,90.73
2023-01-26T14:25:30.678Z,90.08
2023-01-26T14:27:57.532Z,90.53
2023-01-26T14:30:29.989Z,90.27
2023-01-26T14:33:12.199Z,90.20
2023-01-26T14:35:39.443Z,90.78
2023-01-26T14:38:12.459Z,89.76
2023-01-26T14:40:48.293Z,89.30
2023-01-26T14:43:15.780Z,88.91
2023-01-26T14:45:56.073Z,87.75
2023-01-26T14:48:51.819Z,87.38
2023-01-26T14:51:22.604Z,88.01
2023-01-26T14:53:51.940Z,87.78
2023-01-26T14:56:21.305Z,87.49
2023-01-26T14:58:52.727Z,87.84
2023-01-26T15:01:25.157Z,88.73
2023-01-26T15:03:59.655Z,89.40
2023-01-26T15:06:28.568Z,88.56
2023-01-26T15:08:58.415Z,89.07
2023-01-26T15:11:51.894Z,89.05
2023-01-26T15:14:33.101Z,88.72
2023-01-26T15:30:00.659Z,90.69
2023-01-26T15:32:30.444Z,89.95
2023-01-26T15:35:17.995Z,89.39
2023-01-26T15:37:44.988Z,88.84
2023-01-26T15:40:14.467Z,88.73
2023-01-26T15:42:42.289Z,89.18
2023-01-26T15:45:23.639Z,89.35
2023-01-26T15:47:50.586Z,89.43
2023-01-26T15:50:27.397Z,89.99
2023-01-26T15:52:55.188Z,90.56
2023-01-26T15:55:26.513Z,90.47
2023-01-26T15:57:53.417Z,90.35
2023-01-26T16:00:20.506Z,89.51
2023-01-26T16:02:47.385Z,90.28
2023-01-26T16:05:20.386Z,89.38
2023-01-26T16:07:48.168Z,88.40
2023-01-26T16:10:18.167Z,88.11
2023-01-26T16:12:50.316Z,87.13
2023-01-26T16:15:32.669Z,87.40
2023-01-26T16:17:59.616Z,88.22
2023-01-26T16:20:26.477Z,87.71
2023-01-26T16:22:53.357Z,87.27
2023-01-26T16:25:28.980Z,87.07
2023-01-26T16:27:57.137Z,86.66
2023-01-26T16:30:25.464Z,86.99
2023-01-26T16:32:53.780Z,86.18
2023-01-26T16:35:23.045Z,85.36
2023-01-26T16:37:50.783Z,85.02
2023-01-26T16:40:19.135Z,85.15
2023-01-26T16:42:51.668Z,85.37
2023-01-26T16:45:23.633Z,86.12
2023-01-26T16:47:54.964Z,86.20
2023-01-26T16:50:26.344Z,86.65
2023-01-26T16:52:53.646Z,86.47
2023-01-26T16:55:20.674Z,86.16
2023-01-26T16:57:49.988Z,84.88
2023-01-26T17:00:20.156Z,85.11
2023-01-26T17:02:49.193Z,85.51
2023-01-26T17:05:18.866Z,85.60
2023-01-26T17:07:45.793Z,85.57
2023-01-26T17:10:14.626Z,86.35
2023-01-26T17:12:41.606Z,86.05
2023-01-26T17:15:11.690Z,86.88
2023-01-26T17:17:38.889Z,87.00
2023-01-26T17:20:18.458Z,86.97
2023-01-26T17:22:46.094Z,86.57
2023-01-26T17:25:16.388Z,86.24
2023-01-26T17:27:44.670Z,87.14
2023-01-26T17:30:12.308Z,87.21
2023-01-26T17:32:39.151Z,87.75
2023-01-26T17:35:06.391Z,87.93
2023-01-26T17:37:33.244Z,87.87
2023-01-26T17:40:00.202Z,88.50
2023-01-26T17:42:27.718Z,88.74
2023-01-26T17:44:54.757Z,89.09
2023-01-26T17:47:21.844Z,89.22
2023-01-26T17:49:48.833Z,89.82
2023-01-26T17:52:15.870Z,90.26
2023-01-26T17:54:42.761Z,90.42
2023-01-26T17:57:10.059Z,91.21
2023-01-26T17:59:36.917Z,90.75
2023-01-26T18:02:04.568Z,90.90
2023-01-26T18:04:33.013Z,91.44
2023-01-26T18:07:01.945Z,91.65
2023-01-26T18:09:28.994Z,91.96
2023-01-26T18:11:56.024Z,91.84
2023-01-26T18:14:22.928Z,91.86
2023-01-26T18:16:49.889Z,92.09
2023-01-26T18:19:16.845Z,92.41
2023-01-26T18:21:43.871Z,92.73
2023-01-26T18:24:10.739Z,93.54
2023-01-26T18:26:38.960Z,94.08
2023-01-26T18:29:06.503Z,94.42
2023-01-26T18:31:35.968Z,94.49
2023-01-26T18:34:04.336Z,93.83
2023-01-26T18:36:31.466Z,94.48
2023-01-26T18:39:01.532Z,94.39
2023-01-26T18:41:30.683Z,94.10
2023-01-26T18:44:00.884Z,93.18
2023-01-26T18:46:28.690Z,93.68
2023-01-26T18:49:00.631Z,93.61
2023-01-26T18:51:32.683Z,93.44
2023-01-26T18:54:00.215Z,93.69
2023-01-26T18:56:27.696Z,93.54
2023-01-26T18:58:55.071Z,93.31
2023-01-26T19:01:22.464Z,92.72
2023-01-26T19:03:54.264Z,92.02
2023-01-26T19:06:22.849Z,91.83
2023-01-26T19:08:57.791Z,92.39
2023-01-26T19:11:30.809Z,92.35
2023-01-26T19:13:59.063Z,92.00
2023-01-26T19:16:26.232Z,92.02
2023-01-26T19:18:54.303Z,90.53
2023-01-26T19:21:24.562Z,89.81
2023-01-26T19:23:53.920Z,89.91
2023-01-26T19:26:23.811Z,89.91
2023-01-26T19:28:51.109Z,90.01
2023-01-26T19:31:19.941Z,91.26
2023-01-26T19:33:51.606Z,91.67
2023-01-26T19:36:19.463Z,91.94
2023-01-26T19:38:46.738Z,92.30
2023-01-26T19:41:14.110Z,91.53
2023-01-26T19:43:42.014Z,90.45
2023-01-26T19:46:11.658Z,91.23
2023-01-26T19:48:39.291Z,90.58
2023-01-26T19:51:16.251Z,90.50
2023-01-26T19:53:45.861Z,90.75
2023-01-26T19:56:18.206Z,90.62
2023-01-26T19:58:51.002Z,90.52
2023-01-26T20:01:18.778Z,90.28
2023-01-26T20:03:50.727Z,89.40
2023-01-26T20:06:20.744Z,88.90
2023-01-26T20:08:48.308Z,88.56
2023-01-26T20:11:16.335Z,88.77
2023-01-26T20:13:43.222Z,88.72
2023-01-26T20:16:11.719Z,88.35
2023-01-26T20:18:38.588Z,88.76
2023-01-26T20:21:07.274Z,87.97
2023-01-26T20:23:35.184Z,87.52
2023-01-26T20:26:07.771Z,87.66
2023-01-26T20:28:35.519Z,87.92
2023-01-26T20:31:12.114Z,88.70
2023-01-26T20:33:39.379Z,89.45
2023-01-26T20:36:09.002Z,89.74
2023-01-26T20:38:36.469Z,89.59
2023-01-26T20:41:08.564Z,88.78
2023-01-26T20:43:39.280Z,88.51
2023-01-26T20:46:13.150Z,89.07
2023-01-26T20:48:40.302Z,90.49
2023-01-26T20:51:20.002Z,90.76
2023-01-26T20:53:48.691Z,91.09
2023-01-26T20:56:16.525Z,89.82
2023-01-26T20:58:44.108Z,89.62
2023-01-26T21:01:16.687Z,89.35
2023-01-26T21:03:44.534Z,90.16
2023-01-26T21:06:14.320Z,89.54
2023-01-26T21:08:41.857Z,90.20
2023-01-26T21:11:12.823Z,89.91
2023-01-26T21:13:43.486Z,89.86
2023-01-26T21:16:13.108Z,89.84
2023-01-26T21:18:40.264Z,90.62
2023-01-26T21:21:08.871Z,91.19
2023-01-26T21:23:36.002Z,91.32
2023-01-26T21:26:08.206Z,91.52
2023-01-26T21:28:35.055Z,91.99
2023-01-26T21:31:06.310Z,91.82
2023-01-26T21:33:36.127Z,91.53
2023-01-26T21:36:05.746Z,91.44
2023-01-26T21:38:40.713Z,90.61
2023-01-26T21:41:31.403Z,89.29
2023-01-26T21:44:00.226Z,88.40
2023-01-26T21:46:27.445Z,88.93
2023-01-26T21:48:56.809Z,89.63
2023-01-26T21:51:43.057Z,90.25
2023-01-26T21:54:10.210Z,89.50
2023-01-26T21:56:37.653Z,88.82
2023-01-26T21:59:07.703Z,87.80
2023-01-26T22:01:46.623Z,88.42
2023-01-26T22:04:22.637Z,88.62
2023-01-26T22:06:50.145Z,88.53
2023-01-26T22:09:17.938Z,88.41
2023-01-26T22:11:45.522Z,88.00
2023-01-26T22:14:18.535Z,87.64
2023-01-26T22:16:45.621Z,88.51
2023-01-26T22:19:13.088Z,89.71
2023-01-26T22:21:40.400Z,89.63
2023-01-26T22:24:13.893Z,89.31
2023-01-26T22:26:48.861Z,88.78
2023-01-26T22:29:15.752Z,88.46
2023-01-26T22:31:42.841Z,89.21
2023-01-26T22:34:11.469Z,89.99
2023-01-26T22:36:39.409Z,89.87
2023-01-26T22:39:06.541Z,89.50
2023-01-26T22:41:34.511Z,89.06
2023-01-26T22:44:01.808Z,89.60
2023-01-26T22:46:30.451Z,90.05
2023-01-26T22:48:58.911Z,89.59
2023-01-26T22:51:31.018Z,88.75
2023-01-26T22:53:59.462Z,89.06
2023-01-26T22:56:27.473Z,88.98
2023-01-26T22:58:59.396Z,88.83
2023-01-26T23:01:28.735Z,89.09
2023-01-26T23:03:56.072Z,88.64
2023-01-26T23:06:24.129Z,89.57
2023-01-26T23:08:51.192Z,89.63
2023-01-26T23:11:17.970Z,89.92
2023-01-26T23:13:46.687Z,89.73
2023-01-26T23:16:13.903Z,89.76
2023-01-26T23:18:41.659Z,89.46
2023-01-26T23:21:09.469Z,89.83
2023-01-26T23:23:36.596Z,89.47
2023-01-26T23:26:03.526Z,89.87
2023-01-26T23:28:33.976Z,89.38
2023-01-26T23:31:01.810Z,89.74
2023-01-26T23:33:33.677Z,89.93
2023-01-26T23:36:01.003Z,90.46
2023-01-26T23:38:29.626Z,90.51
2023-01-26T23:40:57.214Z,90.75
2023-01-26T23:43:24.571Z,90.55
2023-01-26T23:45:51.963Z,89.60
2023-01-26T23:48:19.887Z,89.25
2023-01-26T23:50:47.177Z,89.79
2023-01-26T23:53:14.310Z,90.02
2023-01-26T23:55:42.708Z,89.96
2023-01-26T23:58:11.167Z,90.11
